createdAt,value
2018-02-14T00:00:57.503Z,8.88
2018-02-14T00:03:00.792Z,10.23
2018-02-14T00:07:39.756Z,7.85
2018-02-14T00:09:41.088Z,7.55
2018-02-14T00:11:42.155Z,7.95
2018-02-14T00:13:43.573Z,7.78
2018-02-14T00:15:44.655Z,8.07
2018-02-14T00:17:45.697Z,8.00
2018-02-14T00:19:46.732Z,8.00
2018-02-14T00:27:03.807Z,8.10
2018-02-14T00:31:52.051Z,7.45
2018-02-14T00:33:53.511Z,8.40
2018-02-14T00:35:57.104Z,8.82
2018-02-14T00:37:59.437Z,9.35
2018-02-14T00:44:56.884Z,9.18
2018-02-14T00:51:54.057Z,8.82
2018-02-14T01:01:17.482Z,9.50
2018-02-14T01:03:18.512Z,10.05
2018-02-14T01:13:10.297Z,12.30
2018-02-14T01:17:49.826Z,9.80
2018-02-14T01:20:05.817Z,8.57
2018-02-14T01:22:06.800Z,9.23
2018-02-14T01:26:45.493Z,7.80
2018-02-14T01:28:46.552Z,8.80
2018-02-14T01:30:47.596Z,8.38
2018-02-14T01:35:26.602Z,8.38
2018-02-14T01:40:11.403Z,7.70
2018-02-14T01:42:12.917Z,8.77
2018-02-14T01:46:43.155Z,8.30
2018-02-14T01:48:44.574Z,7.37
2018-02-14T01:50:46.596Z,7.35
2018-02-14T01:52:55.572Z,8.35
2018-02-14T02:11:44.901Z,9.98
2018-02-14T02:16:23.331Z,7.65
2018-02-14T02:21:02.784Z,8.53
2018-02-14T02:23:06.553Z,8.00
2018-02-14T02:25:07.769Z,7.80
2018-02-14T02:27:08.821Z,7.60
2018-02-14T02:34:24.659Z,6.43
2018-02-14T02:36:25.641Z,7.20
2018-02-14T02:41:04.192Z,7.18
2018-02-14T02:45:41.744Z,8.68
2018-02-14T02:47:56.175Z,8.75
2018-02-14T02:52:25.051Z,9.30
2018-02-14T02:54:26.068Z,8.00
2018-02-14T03:01:42.506Z,7.20
2018-02-14T03:03:43.574Z,6.75
2018-02-14T03:05:44.533Z,7.82
2018-02-14T03:07:45.635Z,8.30
2018-02-14T03:15:04.340Z,6.15
2018-02-14T03:17:05.657Z,8.30
2018-02-14T03:19:06.638Z,8.00
2018-02-14T03:21:08.518Z,9.20
2018-02-14T03:23:09.531Z,8.10
2018-02-14T03:25:10.596Z,8.52
2018-02-14T03:27:11.657Z,8.10
2018-02-14T03:31:50.795Z,8.30
2018-02-14T03:41:18.449Z,8.20
2018-02-14T03:45:49.234Z,6.85
2018-02-14T03:47:53.037Z,8.98
2018-02-14T03:52:32.440Z,9.32
2018-02-14T03:54:33.399Z,9.80
2018-02-14T03:56:34.444Z,8.07
2018-02-14T03:58:35.501Z,8.75
2018-02-14T04:00:37.242Z,9.10
2018-02-14T04:02:38.200Z,8.57
2018-02-14T04:04:39.910Z,9.63
2018-02-14T04:09:18.027Z,8.05
2018-02-14T04:13:50.305Z,9.38
2018-02-14T04:15:53.908Z,10.25
2018-02-14T04:20:33.746Z,7.90
2018-02-14T04:22:35.482Z,8.30
2018-02-14T04:24:37.713Z,7.87
2018-02-14T04:40:06.329Z,7.90
2018-02-14T04:42:07.336Z,8.57
2018-02-14T04:44:19.010Z,8.80
2018-02-14T04:46:20.024Z,7.47
2018-02-14T04:48:21.306Z,8.68
2018-02-14T04:50:22.292Z,8.27
2018-02-14T04:52:24.369Z,8.70
2018-02-14T05:06:53.361Z,9.13
2018-02-14T05:08:54.349Z,9.90
2018-02-14T05:13:33.500Z,10.30
2018-02-14T05:15:34.440Z,9.57
2018-02-14T05:17:35.380Z,9.50
2018-02-14T05:19:36.327Z,9.87
2018-02-14T05:21:37.299Z,11.30
2018-02-14T05:36:35.431Z,12.05
2018-02-14T05:38:36.411Z,11.18
2018-02-14T05:40:37.609Z,12.70
2018-02-14T05:42:38.583Z,12.37
2018-02-14T05:44:39.552Z,12.97
2018-02-14T05:54:13.724Z,14.87
2018-02-14T05:56:14.960Z,13.57
2018-02-14T05:58:15.955Z,10.60
2018-02-14T06:00:17.445Z,11.70
2018-02-14T06:04:54.915Z,10.93
2018-02-14T06:06:58.345Z,11.63
2018-02-14T06:11:39.559Z,11.35
2018-02-14T06:13:40.649Z,11.27
2018-02-14T06:15:48.436Z,10.70
2018-02-14T06:17:49.384Z,10.95
2018-02-14T06:22:27.615Z,10.45
2018-02-14T06:24:28.564Z,12.17
2018-02-14T06:26:29.543Z,11.30
2018-02-14T06:28:30.514Z,10.77
2018-02-14T06:30:31.491Z,10.83
2018-02-14T06:35:09.008Z,12.30
2018-02-14T06:37:10.232Z,12.67
2018-02-14T06:39:11.558Z,12.77
2018-02-14T06:46:31.802Z,10.88
2018-02-14T06:51:09.790Z,11.35
2018-02-14T06:53:31.417Z,12.33
2018-02-14T06:55:59.283Z,13.70
2018-02-14T07:00:28.370Z,12.37
2018-02-14T07:02:29.666Z,11.70
2018-02-14T07:04:31.300Z,11.30
2018-02-14T07:06:32.759Z,11.50
2018-02-14T07:08:34.040Z,12.02
2018-02-14T07:10:56.205Z,12.10
2018-02-14T07:15:37.921Z,11.05
2018-02-14T07:21:18.818Z,9.73
2018-02-14T07:23:29.566Z,9.80
2018-02-14T07:25:33.308Z,11.57
2018-02-14T07:27:51.336Z,10.13
2018-02-14T07:29:52.701Z,11.55
2018-02-14T07:31:53.965Z,11.30
2018-02-14T07:33:54.965Z,9.55
2018-02-14T07:35:55.916Z,10.13
2018-02-14T07:40:51.282Z,10.55
2018-02-14T07:42:53.099Z,10.52
2018-02-14T07:44:54.102Z,11.25
2018-02-14T07:46:55.085Z,10.23
2018-02-14T07:48:56.046Z,10.37
2018-02-14T07:50:57.090Z,10.10
2018-02-14T07:53:22.357Z,9.90
2018-02-14T07:55:23.339Z,10.40
2018-02-14T07:59:52.808Z,10.07
2018-02-14T08:01:53.788Z,10.53
2018-02-14T08:04:20.623Z,9.90
2018-02-14T08:06:22.335Z,10.50
2018-02-14T08:08:23.339Z,9.00
2018-02-14T08:10:24.326Z,9.60
2018-02-14T08:12:25.298Z,9.23
2018-02-14T08:14:49.766Z,9.90
2018-02-14T08:16:50.733Z,10.20
2018-02-14T08:18:58.080Z,10.40
2018-02-14T08:20:59.219Z,10.60
2018-02-14T08:25:28.570Z,9.27
2018-02-14T08:27:30.288Z,9.33
2018-02-14T08:29:31.222Z,10.70
2018-02-14T08:31:32.162Z,10.23
2018-02-14T08:33:33.111Z,9.60
2018-02-14T08:35:34.065Z,10.43
2018-02-14T08:37:50.435Z,11.63
2018-02-14T08:39:51.391Z,9.47
2018-02-14T08:41:52.373Z,10.50
2018-02-14T08:43:53.407Z,9.83
2018-02-14T08:45:58.203Z,10.50
2018-02-14T08:47:59.184Z,10.50
2018-02-14T08:50:00.152Z,11.00
2018-02-14T08:52:01.139Z,10.87
2018-02-14T08:54:02.119Z,10.57
2018-02-14T08:56:03.055Z,11.00
2018-02-14T08:58:03.996Z,9.97
2018-02-14T09:00:04.959Z,11.80
2018-02-14T09:02:05.927Z,11.97
2018-02-14T09:04:08.529Z,11.27
2018-02-14T09:06:09.663Z,11.43
2018-02-14T09:08:10.636Z,11.80
2018-02-14T09:10:12.227Z,12.93
2018-02-14T09:12:13.168Z,11.30
2018-02-14T09:14:22.923Z,11.30
2018-02-14T09:16:34.387Z,12.40
2018-02-14T09:18:48.797Z,12.00
2018-02-14T09:21:22.790Z,10.47
2018-02-14T09:23:23.942Z,11.23
2018-02-14T09:27:52.769Z,11.63
2018-02-14T09:29:53.743Z,12.10
2018-02-14T09:31:55.344Z,12.40
2018-02-14T09:36:25.188Z,12.10
2018-02-14T09:38:26.159Z,11.53
2018-02-14T09:40:27.112Z,11.73
2018-02-14T09:42:51.209Z,11.87
2018-02-14T09:44:52.662Z,11.90
2018-02-14T09:46:53.852Z,10.87
2018-02-14T09:49:01.746Z,9.57
2018-02-14T09:51:09.042Z,10.17
2018-02-14T09:53:28.074Z,9.87
2018-02-14T09:55:29.065Z,11.47
2018-02-14T09:57:30.104Z,11.20
2018-02-14T09:59:31.117Z,12.05
2018-02-14T10:01:32.086Z,10.80
2018-02-14T10:03:40.926Z,10.40
2018-02-14T10:05:41.937Z,11.57
2018-02-14T10:07:43.667Z,10.50
2018-02-14T10:09:44.614Z,9.93
2018-02-14T10:11:45.641Z,11.05
2018-02-14T10:13:46.621Z,11.17
2018-02-14T10:15:47.587Z,11.13
2018-02-14T10:17:48.698Z,10.43
2018-02-14T10:19:49.731Z,12.43
2018-02-14T10:21:50.707Z,11.67
2018-02-14T10:24:10.270Z,10.00
2018-02-14T10:28:39.144Z,10.23
2018-02-14T10:30:40.862Z,11.10
2018-02-14T10:32:41.900Z,11.10
2018-02-14T10:37:10.647Z,11.80
2018-02-14T10:39:11.647Z,11.40
2018-02-14T10:41:12.619Z,11.00
2018-02-14T10:45:45.543Z,10.20
2018-02-14T10:47:46.798Z,10.70
2018-02-14T10:49:47.793Z,10.77
2018-02-14T10:51:48.787Z,10.63
2018-02-14T10:54:10.103Z,10.43
2018-02-14T10:56:11.133Z,10.20
2018-02-14T10:58:12.116Z,10.30
2018-02-14T11:00:13.127Z,10.33
2018-02-14T11:02:14.118Z,11.30
2018-02-14T11:04:21.383Z,10.90
2018-02-14T11:06:39.553Z,12.53
2018-02-14T11:11:26.113Z,10.32
2018-02-14T11:13:27.387Z,11.83
2018-02-14T11:20:24.259Z,10.20
2018-02-14T11:22:25.321Z,8.80
2018-02-14T11:24:26.268Z,10.85
2018-02-14T11:26:27.246Z,10.50
2018-02-14T11:28:28.195Z,9.23
2018-02-14T11:30:55.575Z,8.33
2018-02-14T11:32:56.600Z,10.47
2018-02-14T11:34:57.548Z,9.43
2018-02-14T11:36:58.500Z,9.93
2018-02-14T11:53:57.247Z,8.00
2018-02-14T11:55:58.215Z,7.90
2018-02-14T11:57:59.177Z,9.10
2018-02-14T12:00:00.186Z,8.20
2018-02-14T12:02:07.703Z,9.00
2018-02-14T12:04:08.652Z,8.03
2018-02-14T12:06:09.590Z,8.53
2018-02-14T12:08:10.547Z,8.80
2018-02-14T12:12:39.703Z,9.33
2018-02-14T12:15:07.344Z,9.10
2018-02-14T12:19:36.516Z,8.87
2018-02-14T12:21:37.458Z,8.23
2018-02-14T12:23:38.430Z,8.20
2018-02-14T12:25:39.371Z,7.37
2018-02-14T12:27:40.322Z,7.43
2018-02-14T12:29:49.490Z,8.70
2018-02-14T12:31:50.438Z,7.65
2018-02-14T12:33:51.446Z,7.07
2018-02-14T12:35:52.378Z,7.43
2018-02-14T12:37:53.365Z,7.78
2018-02-14T12:40:08.103Z,6.70
2018-02-14T12:42:09.068Z,7.20
2018-02-14T12:44:10.783Z,8.43
2018-02-14T12:48:40.739Z,8.13
2018-02-14T12:50:41.663Z,7.50
2018-02-14T12:52:42.595Z,7.40
2018-02-14T12:55:07.914Z,7.70
2018-02-14T12:57:09.578Z,7.70
2018-02-14T12:59:10.619Z,8.10
2018-02-14T13:01:26.100Z,8.60
2018-02-14T13:03:27.789Z,8.60
2018-02-14T13:05:28.750Z,7.97
2018-02-14T13:07:29.683Z,7.68
2018-02-14T13:09:30.631Z,8.20
2018-02-14T13:11:31.682Z,9.10
2018-02-14T13:13:32.631Z,8.00
2018-02-14T13:15:33.566Z,8.70
2018-02-14T13:17:34.478Z,8.60
2018-02-14T13:19:36.196Z,9.63
2018-02-14T13:21:37.135Z,9.57
2018-02-14T13:23:38.066Z,9.50
2018-02-14T13:25:39.023Z,9.70
2018-02-14T13:27:40.021Z,9.53
2018-02-14T13:29:41.710Z,10.33
2018-02-14T13:31:42.642Z,9.00
2018-02-14T13:33:44.339Z,8.43
2018-02-14T13:35:45.270Z,9.00
2018-02-14T13:37:46.231Z,9.17
2018-02-14T13:39:47.226Z,10.13
2018-02-14T13:41:48.138Z,10.00
2018-02-14T13:43:49.082Z,9.10
2018-02-14T13:46:13.470Z,10.50
2018-02-14T13:48:14.401Z,9.93
2018-02-14T13:52:43.111Z,10.30
2018-02-14T13:57:07.938Z,10.47
2018-02-14T13:59:08.921Z,9.70
2018-02-14T14:01:09.886Z,10.50
2018-02-14T14:03:14.579Z,11.57
2018-02-14T14:05:15.553Z,11.00
2018-02-14T14:07:16.487Z,10.90
2018-02-14T14:09:17.421Z,12.00
2018-02-14T14:11:18.338Z,10.00
2018-02-14T14:13:19.289Z,10.18
2018-02-14T14:15:20.243Z,10.70
2018-02-14T14:17:21.247Z,9.80
2018-02-14T14:19:30.981Z,10.17
2018-02-14T14:21:45.736Z,9.80
2018-02-14T14:23:46.702Z,10.03
2018-02-14T14:25:47.655Z,9.90
2018-02-14T14:27:48.600Z,10.50
2018-02-14T14:29:49.570Z,10.50
2018-02-14T14:32:13.761Z,11.00
2018-02-14T14:34:15.623Z,12.67
2018-02-14T14:36:17.370Z,11.17
2018-02-14T14:40:46.563Z,10.80
2018-02-14T14:42:47.572Z,9.40
2018-02-14T14:44:49.304Z,11.35
2018-02-14T14:46:50.278Z,12.50
2018-02-14T14:48:51.991Z,11.20
2018-02-14T14:50:52.976Z,12.15
2018-02-14T14:52:53.910Z,11.17
2018-02-14T14:55:15.190Z,11.57
2018-02-14T14:57:16.210Z,12.50
2018-02-14T14:59:17.910Z,12.48
2018-02-14T15:01:18.880Z,12.57
2018-02-14T15:03:19.848Z,11.40
2018-02-14T15:05:20.808Z,12.40
2018-02-14T15:07:43.627Z,13.00
2018-02-14T15:09:44.581Z,12.53
2018-02-14T15:11:45.538Z,12.00
2018-02-14T15:13:46.611Z,12.10
2018-02-14T15:15:47.604Z,11.80
2018-02-14T15:17:48.559Z,13.63
2018-02-14T15:19:49.559Z,12.77
2018-02-14T15:21:50.515Z,14.48
2018-02-14T15:24:13.569Z,12.97
2018-02-14T15:28:44.419Z,12.65
2018-02-14T15:30:45.378Z,9.80
2018-02-14T15:32:47.106Z,12.13
2018-02-14T15:34:48.248Z,11.00
2018-02-14T15:36:49.231Z,11.60
2018-02-14T15:38:50.472Z,11.20
2018-02-14T15:40:51.462Z,10.40
2018-02-14T15:42:52.445Z,11.30
2018-02-14T15:44:53.432Z,10.20
2018-02-14T15:46:55.130Z,11.23
2018-02-14T15:48:56.087Z,9.63
2018-02-14T15:50:57.043Z,10.67
2018-02-14T15:52:58.002Z,8.97
2018-02-14T15:54:58.967Z,9.50
2018-02-14T15:56:59.914Z,11.33
2018-02-14T15:59:00.897Z,11.27
2018-02-14T16:01:01.847Z,10.80
2018-02-14T16:03:14.247Z,10.87
2018-02-14T16:05:15.198Z,10.10
2018-02-14T16:07:16.157Z,11.00
2018-02-14T16:09:17.098Z,10.53
2018-02-14T16:11:18.038Z,9.50
2018-02-14T16:13:18.961Z,9.70
2018-02-14T16:15:20.634Z,11.40
2018-02-14T16:17:21.628Z,9.60
2018-02-14T16:19:31.475Z,10.30
2018-02-14T16:21:32.596Z,9.53
2018-02-14T16:23:33.551Z,11.23
2018-02-14T16:25:34.519Z,12.77
2018-02-14T16:30:11.618Z,11.07
2018-02-14T16:32:12.546Z,12.73
2018-02-14T16:34:33.504Z,11.53
2018-02-14T16:36:34.638Z,12.63
2018-02-14T16:38:35.620Z,13.30
2018-02-14T16:40:36.588Z,13.00
2018-02-14T16:42:37.579Z,12.53
2018-02-14T16:44:38.524Z,14.13
2018-02-14T16:47:04.350Z,16.35
2018-02-14T16:49:05.339Z,13.70
2018-02-14T16:51:06.288Z,14.10
2018-02-14T16:53:08.000Z,12.40
2018-02-14T16:55:08.947Z,14.57
2018-02-14T16:57:10.111Z,13.90
2018-02-14T16:59:19.589Z,12.20
2018-02-14T17:01:21.319Z,13.97
2018-02-14T17:03:24.275Z,14.40
2018-02-14T17:05:25.226Z,13.60
2018-02-14T17:07:26.163Z,14.30
2018-02-14T17:09:27.098Z,15.32
2018-02-14T17:11:53.451Z,13.67
2018-02-14T17:13:54.414Z,14.53
2018-02-14T17:18:24.607Z,14.00
2018-02-14T17:22:53.466Z,12.07
2018-02-14T17:24:54.459Z,15.18
2018-02-14T17:26:55.461Z,13.90
2018-02-14T17:28:56.442Z,12.77
2018-02-14T17:30:57.367Z,12.73
2018-02-14T17:32:58.284Z,15.37
2018-02-14T17:34:59.948Z,11.40
2018-02-14T17:37:01.603Z,12.90
2018-02-14T17:39:03.299Z,12.50
2018-02-14T17:41:04.266Z,11.63
2018-02-14T17:43:05.238Z,12.50
2018-02-14T17:45:06.212Z,12.03
2018-02-14T17:49:44.603Z,11.87
2018-02-14T17:51:45.542Z,8.17
2018-02-14T17:56:13.704Z,12.18
2018-02-14T17:58:15.400Z,11.20
2018-02-14T18:00:16.430Z,11.10
2018-02-14T18:02:18.114Z,12.65
2018-02-14T18:04:19.078Z,11.77
2018-02-14T18:06:20.015Z,14.07
2018-02-14T18:08:21.050Z,11.07
2018-02-14T18:10:22.035Z,13.25
2018-02-14T18:12:22.980Z,12.67
2018-02-14T18:14:24.138Z,11.90
2018-02-14T18:16:25.118Z,12.97
2018-02-14T18:18:38.570Z,10.47
2018-02-14T18:20:46.319Z,11.67
2018-02-14T18:22:47.278Z,9.20
2018-02-14T18:24:48.283Z,12.98
2018-02-14T18:26:50.240Z,13.10
2018-02-14T18:28:51.352Z,11.57
2018-02-14T18:33:29.638Z,11.33
2018-02-14T18:35:30.588Z,11.83
2018-02-14T18:37:31.527Z,12.80
2018-02-14T18:39:32.451Z,13.00
2018-02-14T18:41:44.242Z,12.23
2018-02-14T18:43:45.922Z,11.83
2018-02-14T18:45:46.878Z,12.88
2018-02-14T18:47:47.879Z,14.50
2018-02-14T18:49:48.800Z,11.47
2018-02-14T18:51:49.810Z,13.77
2018-02-14T18:53:50.775Z,12.93
2018-02-14T18:55:51.736Z,11.80
2018-02-14T19:02:42.814Z,11.87
2018-02-14T19:04:43.766Z,10.97
2018-02-14T19:06:44.771Z,12.80
2018-02-14T19:08:45.840Z,12.30
2018-02-14T19:10:46.863Z,12.70
2018-02-14T19:12:47.863Z,14.37
2018-02-14T19:15:12.996Z,13.50
2018-02-14T19:17:14.053Z,14.20
2018-02-14T19:19:15.024Z,13.00
2018-02-14T19:21:39.868Z,12.20
2018-02-14T19:23:40.835Z,14.95
2018-02-14T19:25:41.785Z,14.30
2018-02-14T19:27:42.791Z,13.00
2018-02-14T19:29:52.216Z,12.52
2018-02-14T19:31:53.179Z,13.70
2018-02-14T19:33:54.126Z,12.50
2018-02-14T19:35:55.119Z,11.43
2018-02-14T19:37:56.050Z,14.00
2018-02-14T19:39:56.975Z,12.50
2018-02-14T19:42:09.530Z,12.50
2018-02-14T19:44:10.764Z,12.03
2018-02-14T19:46:11.721Z,11.33
2018-02-14T19:48:12.738Z,12.37
2018-02-14T19:50:13.698Z,12.07
2018-02-14T19:52:14.680Z,13.02
2018-02-14T19:54:16.368Z,13.20
2018-02-14T19:56:17.347Z,12.30
2018-02-14T19:58:22.336Z,13.60
2018-02-14T20:02:52.087Z,11.80
2018-02-14T20:04:53.051Z,12.77
2018-02-14T20:06:54.013Z,12.27
2018-02-14T20:09:21.536Z,11.30
2018-02-14T20:11:22.551Z,11.37
2018-02-14T20:13:23.539Z,13.80
2018-02-14T20:17:52.536Z,12.10
2018-02-14T20:20:04.014Z,11.15
2018-02-14T20:22:04.930Z,11.03
2018-02-14T20:24:05.927Z,12.63
2018-02-14T20:26:06.906Z,11.43
2018-02-14T20:28:07.847Z,12.70
2018-02-14T20:30:08.903Z,12.50
2018-02-14T20:32:10.085Z,12.27
2018-02-14T20:34:34.357Z,13.18
2018-02-14T20:36:36.167Z,13.37
2018-02-14T20:41:46.184Z,11.65
2018-02-14T20:43:47.912Z,12.90
2018-02-14T20:45:48.946Z,12.47
2018-02-14T20:47:49.907Z,12.17
2018-02-14T20:49:51.956Z,15.65
2018-02-14T20:51:52.950Z,13.60
2018-02-14T20:56:21.967Z,12.27
2018-02-14T20:58:26.412Z,14.07
2018-02-14T21:00:35.565Z,12.90
2018-02-14T21:02:36.568Z,13.40
2018-02-14T21:07:05.429Z,14.67
2018-02-14T21:09:19.751Z,15.00
2018-02-14T21:11:34.756Z,15.40
2018-02-14T21:16:03.445Z,14.80
2018-02-14T21:20:54.091Z,15.60
2018-02-14T21:22:55.130Z,12.60
2018-02-14T21:27:13.347Z,13.13
2018-02-14T21:31:42.273Z,12.43
2018-02-14T21:33:44.024Z,16.35
2018-02-14T21:35:45.732Z,14.13
2018-02-14T21:37:46.819Z,14.10
2018-02-14T21:39:47.814Z,16.53
2018-02-14T21:41:52.270Z,14.10
2018-02-14T21:43:53.275Z,15.00
2018-02-14T21:45:54.339Z,15.90
2018-02-14T21:47:55.262Z,14.13
2018-02-14T21:49:57.051Z,15.50
2018-02-14T21:51:58.051Z,15.40
2018-02-14T21:53:58.963Z,14.83
2018-02-14T21:56:00.415Z,14.00
2018-02-14T21:58:25.020Z,13.77
2018-02-14T22:00:26.008Z,12.60
2018-02-14T22:02:52.287Z,14.10
2018-02-14T22:07:22.170Z,14.43
2018-02-14T22:09:25.716Z,14.07
2018-02-14T22:11:26.680Z,15.23
2018-02-14T22:13:27.687Z,14.33
2018-02-14T22:15:28.695Z,15.70
2018-02-14T22:17:29.681Z,15.90
2018-02-14T22:19:30.691Z,13.70
2018-02-14T22:26:27.422Z,17.00
2018-02-14T22:28:28.387Z,14.40
2018-02-14T22:35:25.728Z,14.70
2018-02-14T22:37:26.739Z,15.37
2018-02-14T22:39:27.702Z,16.70
2018-02-14T22:41:28.720Z,13.70
2018-02-14T22:43:29.691Z,13.87
2018-02-14T22:45:30.674Z,16.50
2018-02-14T22:47:31.633Z,15.10
2018-02-14T22:49:33.492Z,14.50
2018-02-14T22:51:34.468Z,14.82
2018-02-14T22:53:35.498Z,13.50
2018-02-14T22:55:51.572Z,15.85
2018-02-14T22:57:52.639Z,15.15
2018-02-14T22:59:53.639Z,15.15
2018-02-14T23:01:54.600Z,14.70
2018-02-14T23:03:55.622Z,15.40
2018-02-14T23:06:00.148Z,13.80
2018-02-14T23:08:06.778Z,13.27
2018-02-14T23:10:07.982Z,14.50
2018-02-14T23:12:08.919Z,15.57
2018-02-14T23:14:09.929Z,14.93
2018-02-14T23:16:10.955Z,15.93
2018-02-14T23:18:11.972Z,14.68
2018-02-14T23:20:12.934Z,16.95
2018-02-14T23:22:13.918Z,13.67
2018-02-14T23:24:14.907Z,16.63
2018-02-14T23:26:15.858Z,17.55
2018-02-14T23:28:16.920Z,16.33
2018-02-14T23:30:18.011Z,15.30
2018-02-14T23:32:22.386Z,15.05
2018-02-14T23:37:21.277Z,15.85
2018-02-14T23:41:50.371Z,15.82
2018-02-14T23:44:24.439Z,15.63
2018-02-14T23:46:25.537Z,18.30
2018-02-14T23:48:27.339Z,18.63
2018-02-14T23:50:28.299Z,15.70
2018-02-14T23:52:29.348Z,18.48
2018-02-14T23:56:54.640Z,16.27
2018-02-14T23:58:56.402Z,16.30
